sensor_id;sensor_type;location;lat;lon;timestamp;P1;durP1;ratioP1;P2;durP2;ratioP2
11955;SDS011;6038;52.276;10.530;2022-09-27T00:01:42;449.93;;;406.83;;
11955;SDS011;6038;52.276;10.530;2022-09-27T00:04:10;443.80;;;404.20;;
11955;SDS011;6038;52.276;10.530;2022-09-27T00:06:36;460.40;;;421.10;;
11955;SDS011;6038;52.276;10.530;2022-09-27T00:09:02;445.20;;;404.70;;
11955;SDS011;6038;52.276;10.530;2022-09-27T00:11:32;381.93;;;350.27;;
11955;SDS011;6038;52.276;10.530;2022-09-27T00:13:59;469.20;;;427.80;;
11955;SDS011;6038;52.276;10.530;2022-09-27T00:16:26;456.73;;;412.40;;
11955;SDS011;6038;52.276;10.530;2022-09-27T00:18:56;469.67;;;421.40;;
11955;SDS011;6038;52.276;10.530;2022-09-27T00:21:24;469.03;;;420.10;;
11955;SDS011;6038;52.276;10.530;2022-09-27T00:23:50;473.80;;;425.03;;
11955;SDS011;6038;52.276;10.530;2022-09-27T00:26:16;507.57;;;457.77;;
11955;SDS011;6038;52.276;10.530;2022-09-27T00:28:42;479.80;;;427.20;;
11955;SDS011;6038;52.276;10.530;2022-09-27T00:31:19;479.73;;;427.40;;
11955;SDS011;6038;52.276;10.530;2022-09-27T00:33:46;491.70;;;419.40;;
11955;SDS011;6038;52.276;10.530;2022-09-27T00:36:12;466.27;;;414.23;;
11955;SDS011;6038;52.276;10.530;2022-09-27T00:38:41;474.50;;;422.30;;
11955;SDS011;6038;52.276;10.530;2022-09-27T00:41:18;501.33;;;449.97;;
11955;SDS011;6038;52.276;10.530;2022-09-27T00:43:46;470.80;;;416.40;;
11955;SDS011;6038;52.276;10.530;2022-09-27T00:46:13;471.07;;;414.63;;
11955;SDS011;6038;52.276;10.530;2022-09-27T00:48:42;489.27;;;425.97;;
11955;SDS011;6038;52.276;10.530;2022-09-27T00:51:09;470.43;;;419.90;;
11955;SDS011;6038;52.276;10.530;2022-09-27T00:53:40;430.40;;;394.40;;
11955;SDS011;6038;52.276;10.530;2022-09-27T00:56:11;491.00;;;444.10;;
11955;SDS011;6038;52.276;10.530;2022-09-27T00:58:38;484.63;;;441.47;;
11955;SDS011;6038;52.276;10.530;2022-09-27T01:01:07;461.60;;;420.40;;
11955;SDS011;6038;52.276;10.530;2022-09-27T01:03:45;398.57;;;365.80;;
11955;SDS011;6038;52.276;10.530;2022-09-27T01:06:12;348.60;;;321.90;;
11955;SDS011;6038;52.276;10.530;2022-09-27T01:08:38;459.50;;;421.00;;
11955;SDS011;6038;52.276;10.530;2022-09-27T01:14:25;360.27;;;332.90;;
11955;SDS011;6038;52.276;10.530;2022-09-27T01:16:40;342.43;;;317.40;;
11955;SDS011;6038;52.276;10.530;2022-09-27T01:22:03;518.83;;;477.40;;
11955;SDS011;6038;52.276;10.530;2022-09-27T01:32:10;1.63;;;1.53;;
11955;SDS011;6038;52.276;10.530;2022-09-27T01:39:59;1.80;;;1.53;;
11955;SDS011;6038;52.276;10.530;2022-09-27T01:42:35;1.90;;;1.40;;
11955;SDS011;6038;52.276;10.530;2022-09-27T01:45:09;1.53;;;1.43;;
11955;SDS011;6038;52.276;10.530;2022-09-27T01:47:39;3.17;;;1.80;;
11955;SDS011;6038;52.276;10.530;2022-09-27T01:50:12;3.63;;;1.67;;
11955;SDS011;6038;52.276;10.530;2022-09-27T01:52:44;2.10;;;1.50;;
11955;SDS011;6038;52.276;10.530;2022-09-27T01:55:12;3.63;;;1.80;;
11955;SDS011;6038;52.276;10.530;2022-09-27T01:57:40;2.30;;;1.70;;
11955;SDS011;6038;52.276;10.530;2022-09-27T02:00:09;5.10;;;2.03;;
11955;SDS011;6038;52.276;10.530;2022-09-27T02:02:37;2.27;;;1.50;;
11955;SDS011;6038;52.276;10.530;2022-09-27T02:05:05;2.10;;;1.57;;
11955;SDS011;6038;52.276;10.530;2022-09-27T02:07:33;2.23;;;1.30;;
11955;SDS011;6038;52.276;10.530;2022-09-27T02:10:04;2.10;;;1.70;;
11955;SDS011;6038;52.276;10.530;2022-09-27T02:12:34;1.73;;;1.50;;
11955;SDS011;6038;52.276;10.530;2022-09-27T02:15:04;1.63;;;1.30;;
11955;SDS011;6038;52.276;10.530;2022-09-27T02:17:35;2.33;;;1.60;;
11955;SDS011;6038;52.276;10.530;2022-09-27T02:20:13;2.50;;;1.53;;
11955;SDS011;6038;52.276;10.530;2022-09-27T02:22:47;1.70;;;1.60;;
11955;SDS011;6038;52.276;10.530;2022-09-27T02:27:48;3.20;;;1.73;;
11955;SDS011;6038;52.276;10.530;2022-09-27T02:30:15;2.60;;;1.97;;
11955;SDS011;6038;52.276;10.530;2022-09-27T02:32:41;3.37;;;2.27;;
11955;SDS011;6038;52.276;10.530;2022-09-27T02:35:09;2.53;;;2.17;;
11955;SDS011;6038;52.276;10.530;2022-09-27T02:37:37;4.63;;;2.80;;
11955;SDS011;6038;52.276;10.530;2022-09-27T02:40:03;5.13;;;3.07;;
11955;SDS011;6038;52.276;10.530;2022-09-27T02:42:29;4.77;;;3.20;;
11955;SDS011;6038;52.276;10.530;2022-09-27T02:44:56;5.70;;;3.20;;
11955;SDS011;6038;52.276;10.530;2022-09-27T02:49:59;2.53;;;2.30;;
11955;SDS011;6038;52.276;10.530;2022-09-27T02:55:22;4.37;;;2.53;;
11955;SDS011;6038;52.276;10.530;2022-09-27T03:00:33;3.97;;;2.53;;
11955;SDS011;6038;52.276;10.530;2022-09-27T03:03:06;3.37;;;2.37;;
11955;SDS011;6038;52.276;10.530;2022-09-27T03:05:38;2.90;;;2.00;;
11955;SDS011;6038;52.276;10.530;2022-09-27T03:08:06;3.47;;;2.50;;
11955;SDS011;6038;52.276;10.530;2022-09-27T03:10:32;3.80;;;2.43;;
11955;SDS011;6038;52.276;10.530;2022-09-27T03:12:58;3.20;;;2.40;;
11955;SDS011;6038;52.276;10.530;2022-09-27T03:15:24;2.83;;;2.40;;
11955;SDS011;6038;52.276;10.530;2022-09-27T03:17:50;3.70;;;2.20;;
11955;SDS011;6038;52.276;10.530;2022-09-27T03:20:16;7.53;;;2.70;;
11955;SDS011;6038;52.276;10.530;2022-09-27T03:22:42;4.13;;;2.70;;
11955;SDS011;6038;52.276;10.530;2022-09-27T03:25:10;3.80;;;2.57;;
11955;SDS011;6038;52.276;10.530;2022-09-27T03:27:36;4.63;;;2.50;;
11955;SDS011;6038;52.276;10.530;2022-09-27T03:30:02;3.27;;;2.37;;
11955;SDS011;6038;52.276;10.530;2022-09-27T03:32:28;5.40;;;2.97;;
11955;SDS011;6038;52.276;10.530;2022-09-27T03:34:55;3.77;;;2.30;;
11955;SDS011;6038;52.276;10.530;2022-09-27T03:37:21;3.03;;;2.20;;
11955;SDS011;6038;52.276;10.530;2022-09-27T03:39:47;4.40;;;4.00;;
11955;SDS011;6038;52.276;10.530;2022-09-27T03:42:13;4.70;;;3.43;;
11955;SDS011;6038;52.276;10.530;2022-09-27T03:44:39;5.07;;;3.60;;
11955;SDS011;6038;52.276;10.530;2022-09-27T03:47:05;4.63;;;4.23;;
11955;SDS011;6038;52.276;10.530;2022-09-27T03:49:31;4.97;;;3.07;;
11955;SDS011;6038;52.276;10.530;2022-09-27T03:51:57;7.47;;;6.93;;
11955;SDS011;6038;52.276;10.530;2022-09-27T03:54:23;9.40;;;8.70;;
11955;SDS011;6038;52.276;10.530;2022-09-27T03:56:49;17.00;;;15.97;;
11955;SDS011;6038;52.276;10.530;2022-09-27T03:59:16;7.03;;;6.53;;
11955;SDS011;6038;52.276;10.530;2022-09-27T04:01:42;22.90;;;21.63;;
11955;SDS011;6038;52.276;10.530;2022-09-27T04:04:09;23.20;;;21.70;;
11955;SDS011;6038;52.276;10.530;2022-09-27T04:06:35;37.40;;;35.23;;
11955;SDS011;6038;52.276;10.530;2022-09-27T04:09:01;24.63;;;22.97;;
11955;SDS011;6038;52.276;10.530;2022-09-27T04:11:27;34.07;;;31.93;;
11955;SDS011;6038;52.276;10.530;2022-09-27T04:13:53;25.37;;;23.77;;
11955;SDS011;6038;52.276;10.530;2022-09-27T04:16:20;17.50;;;16.43;;
11955;SDS011;6038;52.276;10.530;2022-09-27T04:18:46;32.40;;;30.50;;
11955;SDS011;6038;52.276;10.530;2022-09-27T04:21:12;17.27;;;16.30;;
11955;SDS011;6038;52.276;10.530;2022-09-27T04:23:38;47.07;;;44.40;;
11955;SDS011;6038;52.276;10.530;2022-09-27T04:26:04;26.67;;;25.10;;
11955;SDS011;6038;52.276;10.530;2022-09-27T04:28:31;61.83;;;58.43;;
11955;SDS011;6038;52.276;10.530;2022-09-27T04:30:57;47.23;;;44.60;;
11955;SDS011;6038;52.276;10.530;2022-09-27T04:33:23;47.10;;;44.33;;
11955;SDS011;6038;52.276;10.530;2022-09-27T04:35:49;62.70;;;58.90;;
11955;SDS011;6038;52.276;10.530;2022-09-27T04:38:34;40.40;;;38.03;;
11955;SDS011;6038;52.276;10.530;2022-09-27T04:41:00;72.00;;;67.97;;
11955;SDS011;6038;52.276;10.530;2022-09-27T04:43:26;89.27;;;84.23;;
11955;SDS011;6038;52.276;10.530;2022-09-27T04:45:52;61.43;;;58.07;;
11955;SDS011;6038;52.276;10.530;2022-09-27T04:48:18;129.07;;;121.33;;
11955;SDS011;6038;52.276;10.530;2022-09-27T04:50:44;72.67;;;68.50;;
11955;SDS011;6038;52.276;10.530;2022-09-27T04:53:14;105.43;;;99.33;;
11955;SDS011;6038;52.276;10.530;2022-09-27T04:55:44;108.57;;;102.47;;
11955;SDS011;6038;52.276;10.530;2022-09-27T04:58:10;166.33;;;156.33;;
11955;SDS011;6038;52.276;10.530;2022-09-27T05:00:36;141.90;;;133.53;;
11955;SDS011;6038;52.276;10.530;2022-09-27T05:03:02;199.37;;;187.13;;
11955;SDS011;6038;52.276;10.530;2022-09-27T05:05:28;131.77;;;123.87;;
11955;SDS011;6038;52.276;10.530;2022-09-27T05:07:54;175.80;;;165.30;;
11955;SDS011;6038;52.276;10.530;2022-09-27T05:10:20;111.97;;;105.50;;
11955;SDS011;6038;52.276;10.530;2022-09-27T05:12:46;172.87;;;162.57;;
11955;SDS011;6038;52.276;10.530;2022-09-27T05:15:12;241.07;;;225.30;;
11955;SDS011;6038;52.276;10.530;2022-09-27T05:17:38;174.70;;;163.97;;
11955;SDS011;6038;52.276;10.530;2022-09-27T05:20:04;199.90;;;187.20;;
11955;SDS011;6038;52.276;10.530;2022-09-27T05:22:30;151.60;;;142.40;;
11955;SDS011;6038;52.276;10.530;2022-09-27T05:24:56;103.60;;;97.73;;
11955;SDS011;6038;52.276;10.530;2022-09-27T05:27:22;163.57;;;153.53;;
11955;SDS011;6038;52.276;10.530;2022-09-27T05:29:48;198.50;;;186.00;;
11955;SDS011;6038;52.276;10.530;2022-09-27T05:32:14;176.87;;;165.97;;
11955;SDS011;6038;52.276;10.530;2022-09-27T05:34:40;214.53;;;200.80;;
11955;SDS011;6038;52.276;10.530;2022-09-27T05:37:07;205.73;;;192.97;;
11955;SDS011;6038;52.276;10.530;2022-09-27T05:39:33;270.47;;;251.80;;
11955;SDS011;6038;52.276;10.530;2022-09-27T05:41:59;266.07;;;247.60;;
11955;SDS011;6038;52.276;10.530;2022-09-27T05:44:26;262.73;;;244.40;;
11955;SDS011;6038;52.276;10.530;2022-09-27T05:46:52;207.53;;;194.47;;
11955;SDS011;6038;52.276;10.530;2022-09-27T05:49:18;252.23;;;234.83;;
11955;SDS011;6038;52.276;10.530;2022-09-27T05:51:44;226.80;;;211.57;;
11955;SDS011;6038;52.276;10.530;2022-09-27T05:54:11;278.87;;;258.70;;
11955;SDS011;6038;52.276;10.530;2022-09-27T05:56:37;266.57;;;247.93;;
11955;SDS011;6038;52.276;10.530;2022-09-27T05:59:03;233.07;;;217.50;;
11955;SDS011;6038;52.276;10.530;2022-09-27T06:01:29;254.70;;;237.03;;
11955;SDS011;6038;52.276;10.530;2022-09-27T06:03:55;260.30;;;242.07;;
11955;SDS011;6038;52.276;10.530;2022-09-27T06:06:21;240.17;;;223.93;;
11955;SDS011;6038;52.276;10.530;2022-09-27T06:08:47;276.90;;;256.97;;
11955;SDS011;6038;52.276;10.530;2022-09-27T06:11:14;296.60;;;274.13;;
11955;SDS011;6038;52.276;10.530;2022-09-27T06:13:40;256.37;;;238.57;;
11955;SDS011;6038;52.276;10.530;2022-09-27T06:16:07;235.43;;;219.23;;
11955;SDS011;6038;52.276;10.530;2022-09-27T06:18:34;309.00;;;285.27;;
11955;SDS011;6038;52.276;10.530;2022-09-27T06:21:01;321.60;;;296.90;;
11955;SDS011;6038;52.276;10.530;2022-09-27T06:23:28;284.30;;;263.43;;
11955;SDS011;6038;52.276;10.530;2022-09-27T06:25:59;341.40;;;314.20;;
11955;SDS011;6038;52.276;10.530;2022-09-27T06:28:26;337.90;;;310.80;;
11955;SDS011;6038;52.276;10.530;2022-09-27T06:30:52;358.13;;;328.73;;
11955;SDS011;6038;52.276;10.530;2022-09-27T06:33:18;354.60;;;326.10;;
11955;SDS011;6038;52.276;10.530;2022-09-27T06:35:45;312.93;;;289.03;;
11955;SDS011;6038;52.276;10.530;2022-09-27T06:38:13;344.83;;;317.37;;
11955;SDS011;6038;52.276;10.530;2022-09-27T06:40:41;341.67;;;314.43;;
11955;SDS011;6038;52.276;10.530;2022-09-27T06:43:11;354.13;;;325.83;;
11955;SDS011;6038;52.276;10.530;2022-09-27T06:45:37;385.13;;;352.10;;
11955;SDS011;6038;52.276;10.530;2022-09-27T06:48:04;397.23;;;363.17;;
11955;SDS011;6038;52.276;10.530;2022-09-27T06:50:32;323.00;;;298.00;;
11955;SDS011;6038;52.276;10.530;2022-09-27T06:52:58;379.30;;;347.93;;
11955;SDS011;6038;52.276;10.530;2022-09-27T06:55:24;364.93;;;335.63;;
11955;SDS011;6038;52.276;10.530;2022-09-27T06:57:54;376.00;;;343.97;;
11955;SDS011;6038;52.276;10.530;2022-09-27T07:00:39;373.20;;;340.90;;
11955;SDS011;6038;52.276;10.530;2022-09-27T07:03:07;392.47;;;359.67;;
11955;SDS011;6038;52.276;10.530;2022-09-27T07:05:33;371.33;;;340.10;;
11955;SDS011;6038;52.276;10.530;2022-09-27T07:08:00;391.30;;;357.53;;
11955;SDS011;6038;52.276;10.530;2022-09-27T07:10:27;423.00;;;385.13;;
11955;SDS011;6038;52.276;10.530;2022-09-27T07:12:54;409.17;;;372.83;;
11955;SDS011;6038;52.276;10.530;2022-09-27T07:15:20;411.03;;;375.30;;
11955;SDS011;6038;52.276;10.530;2022-09-27T07:17:56;391.47;;;359.57;;
11955;SDS011;6038;52.276;10.530;2022-09-27T07:20:23;432.10;;;392.83;;
11955;SDS011;6038;52.276;10.530;2022-09-27T07:22:49;428.00;;;389.70;;
11955;SDS011;6038;52.276;10.530;2022-09-27T07:25:15;429.43;;;391.63;;
11955;SDS011;6038;52.276;10.530;2022-09-27T07:27:41;407.53;;;372.53;;
11955;SDS011;6038;52.276;10.530;2022-09-27T07:30:07;438.07;;;398.27;;
11955;SDS011;6038;52.276;10.530;2022-09-27T07:32:34;437.17;;;397.97;;
11955;SDS011;6038;52.276;10.530;2022-09-27T07:35:01;409.30;;;375.33;;
11955;SDS011;6038;52.276;10.530;2022-09-27T07:37:30;454.93;;;413.47;;
11955;SDS011;6038;52.276;10.530;2022-09-27T07:39:56;453.50;;;411.93;;
11955;SDS011;6038;52.276;10.530;2022-09-27T07:42:22;443.47;;;405.93;;
11955;SDS011;6038;52.276;10.530;2022-09-27T07:44:48;441.60;;;402.47;;
11955;SDS011;6038;52.276;10.530;2022-09-27T07:47:14;442.77;;;404.57;;
11955;SDS011;6038;52.276;10.530;2022-09-27T07:49:40;444.63;;;404.30;;
11955;SDS011;6038;52.276;10.530;2022-09-27T07:52:07;448.33;;;409.60;;
11955;SDS011;6038;52.276;10.530;2022-09-27T07:54:32;438.97;;;398.53;;
11955;SDS011;6038;52.276;10.530;2022-09-27T07:56:58;416.33;;;381.07;;
11955;SDS011;6038;52.276;10.530;2022-09-27T07:59:26;413.37;;;377.17;;
11955;SDS011;6038;52.276;10.530;2022-09-27T08:01:53;426.53;;;387.23;;
11955;SDS011;6038;52.276;10.530;2022-09-27T08:04:20;442.47;;;403.27;;
11955;SDS011;6038;52.276;10.530;2022-09-27T08:06:46;435.03;;;396.33;;
11955;SDS011;6038;52.276;10.530;2022-09-27T08:09:12;423.27;;;385.43;;
11955;SDS011;6038;52.276;10.530;2022-09-27T08:11:38;421.17;;;384.40;;
11955;SDS011;6038;52.276;10.530;2022-09-27T08:14:04;415.87;;;378.80;;
11955;SDS011;6038;52.276;10.530;2022-09-27T08:16:32;438.50;;;399.17;;
11955;SDS011;6038;52.276;10.530;2022-09-27T08:18:58;430.13;;;392.53;;
11955;SDS011;6038;52.276;10.530;2022-09-27T08:21:24;450.63;;;411.50;;
11955;SDS011;6038;52.276;10.530;2022-09-27T08:23:50;409.50;;;373.30;;
11955;SDS011;6038;52.276;10.530;2022-09-27T08:26:16;419.80;;;382.03;;
11955;SDS011;6038;52.276;10.530;2022-09-27T08:28:42;424.30;;;386.33;;
11955;SDS011;6038;52.276;10.530;2022-09-27T08:31:08;427.80;;;389.17;;
11955;SDS011;6038;52.276;10.530;2022-09-27T08:33:34;417.83;;;380.10;;
11955;SDS011;6038;52.276;10.530;2022-09-27T08:36:00;409.90;;;373.73;;
11955;SDS011;6038;52.276;10.530;2022-09-27T08:38:27;398.50;;;365.20;;
11955;SDS011;6038;52.276;10.530;2022-09-27T08:40:56;431.60;;;393.07;;
11955;SDS011;6038;52.276;10.530;2022-09-27T08:48:40;428.37;;;389.27;;
11955;SDS011;6038;52.276;10.530;2022-09-27T08:51:09;438.27;;;398.53;;
11955;SDS011;6038;52.276;10.530;2022-09-27T08:53:38;439.83;;;400.27;;
11955;SDS011;6038;52.276;10.530;2022-09-27T08:56:06;450.43;;;410.43;;
11955;SDS011;6038;52.276;10.530;2022-09-27T09:01:03;463.43;;;421.70;;
11955;SDS011;6038;52.276;10.530;2022-09-27T09:03:31;456.80;;;413.50;;
11955;SDS011;6038;52.276;10.530;2022-09-27T09:08:34;437.87;;;400.37;;
11955;SDS011;6038;52.276;10.530;2022-09-27T09:11:12;450.07;;;407.80;;
11955;SDS011;6038;52.276;10.530;2022-09-27T09:14:05;449.63;;;407.80;;
11955;SDS011;6038;52.276;10.530;2022-09-27T09:16:52;456.07;;;410.70;;
11955;SDS011;6038;52.276;10.530;2022-09-27T09:30:03;445.03;;;396.60;;
11955;SDS011;6038;52.276;10.530;2022-09-27T09:35:18;447.53;;;399.50;;
11955;SDS011;6038;52.276;10.530;2022-09-27T09:37:50;447.23;;;398.40;;
11955;SDS011;6038;52.276;10.530;2022-09-27T09:40:21;457.23;;;409.57;;
11955;SDS011;6038;52.276;10.530;2022-09-27T09:45:18;461.87;;;411.23;;
11955;SDS011;6038;52.276;10.530;2022-09-27T09:50:21;464.17;;;413.17;;
11955;SDS011;6038;52.276;10.530;2022-09-27T09:55:40;466.63;;;405.93;;
11955;SDS011;6038;52.276;10.530;2022-09-27T10:00:43;522.63;;;468.53;;
11955;SDS011;6038;52.276;10.530;2022-09-27T10:03:10;513.93;;;457.13;;
11955;SDS011;6038;52.276;10.530;2022-09-27T10:05:36;525.27;;;470.97;;
11955;SDS011;6038;52.276;10.530;2022-09-27T10:08:03;532.77;;;475.47;;
11955;SDS011;6038;52.276;10.530;2022-09-27T10:10:32;547.63;;;491.40;;
11955;SDS011;6038;52.276;10.530;2022-09-27T10:12:58;549.97;;;498.50;;
11955;SDS011;6038;52.276;10.530;2022-09-27T10:15:27;534.63;;;474.67;;
11955;SDS011;6038;52.276;10.530;2022-09-27T10:17:55;520.30;;;464.07;;
11955;SDS011;6038;52.276;10.530;2022-09-27T10:23:05;525.47;;;471.27;;
11955;SDS011;6038;52.276;10.530;2022-09-27T10:28:52;533.57;;;477.67;;
11955;SDS011;6038;52.276;10.530;2022-09-27T10:31:15;511.13;;;455.50;;
11955;SDS011;6038;52.276;10.530;2022-09-27T10:33:53;519.67;;;465.70;;
11955;SDS011;6038;52.276;10.530;2022-09-27T10:36:30;517.13;;;461.43;;
11955;SDS011;6038;52.276;10.530;2022-09-27T10:38:58;509.53;;;453.53;;
11955;SDS011;6038;52.276;10.530;2022-09-27T10:41:31;538.40;;;486.33;;
11955;SDS011;6038;52.276;10.530;2022-09-27T10:46:31;535.43;;;477.30;;
11955;SDS011;6038;52.276;10.530;2022-09-27T10:51:43;644.60;;;558.60;;
11955;SDS011;6038;52.276;10.530;2022-09-27T10:54:20;647.83;;;577.83;;
11955;SDS011;6038;52.276;10.530;2022-09-27T10:56:52;678.67;;;609.87;;
11955;SDS011;6038;52.276;10.530;2022-09-27T10:59:20;721.93;;;649.57;;
11955;SDS011;6038;52.276;10.530;2022-09-27T11:01:46;1132.70;;;999.90;;
11955;SDS011;6038;52.276;10.530;2022-09-27T11:04:36;919.73;;;848.00;;
11955;SDS011;6038;52.276;10.530;2022-09-27T11:09:43;885.10;;;812.60;;
11955;SDS011;6038;52.276;10.530;2022-09-27T11:12:12;895.33;;;821.50;;
11955;SDS011;6038;52.276;10.530;2022-09-27T11:14:39;916.80;;;843.77;;
11955;SDS011;6038;52.276;10.530;2022-09-27T11:17:12;927.03;;;854.13;;
11955;SDS011;6038;52.276;10.530;2022-09-27T11:29:55;895.37;;;827.30;;
11955;SDS011;6038;52.276;10.530;2022-09-27T11:37:38;927.63;;;850.53;;
11955;SDS011;6038;52.276;10.530;2022-09-27T11:45:02;886.40;;;806.47;;
11955;SDS011;6038;52.276;10.530;2022-09-27T11:58:10;714.93;;;644.90;;
11955;SDS011;6038;52.276;10.530;2022-09-27T12:13:37;589.67;;;504.27;;
11955;SDS011;6038;52.276;10.530;2022-09-27T12:16:05;591.63;;;499.13;;
11955;SDS011;6038;52.276;10.530;2022-09-27T12:18:37;597.00;;;489.50;;
11955;SDS011;6038;52.276;10.530;2022-09-27T12:21:05;575.20;;;511.87;;
11955;SDS011;6038;52.276;10.530;2022-09-27T12:23:36;583.90;;;492.37;;
11955;SDS011;6038;52.276;10.530;2022-09-27T12:26:05;586.60;;;489.90;;
11955;SDS011;6038;52.276;10.530;2022-09-27T12:28:47;585.77;;;505.17;;
11955;SDS011;6038;52.276;10.530;2022-09-27T12:36:29;577.00;;;513.30;;
11955;SDS011;6038;52.276;10.530;2022-09-27T12:39:01;576.97;;;511.47;;
11955;SDS011;6038;52.276;10.530;2022-09-27T12:41:30;591.10;;;486.03;;
11955;SDS011;6038;52.276;10.530;2022-09-27T12:43:59;587.57;;;480.57;;
11955;SDS011;6038;52.276;10.530;2022-09-27T12:51:46;612.33;;;504.73;;
11955;SDS011;6038;52.276;10.530;2022-09-27T13:04:45;633.57;;;519.77;;
11955;SDS011;6038;52.276;10.530;2022-09-27T13:09:49;643.63;;;543.17;;
11955;SDS011;6038;52.276;10.530;2022-09-27T13:12:23;675.33;;;585.63;;
11955;SDS011;6038;52.276;10.530;2022-09-27T13:15:11;713.80;;;636.73;;
11955;SDS011;6038;52.276;10.530;2022-09-27T13:22:56;865.13;;;784.43;;
11955;SDS011;6038;52.276;10.530;2022-09-27T13:30:52;837.80;;;760.03;;
11955;SDS011;6038;52.276;10.530;2022-09-27T13:38:30;759.30;;;680.53;;
11955;SDS011;6038;52.276;10.530;2022-09-27T13:41:12;741.50;;;664.00;;
11955;SDS011;6038;52.276;10.530;2022-09-27T13:46:06;697.13;;;625.50;;
11955;SDS011;6038;52.276;10.530;2022-09-27T13:53:38;641.17;;;566.53;;
11955;SDS011;6038;52.276;10.530;2022-09-27T13:56:05;646.33;;;558.83;;
11955;SDS011;6038;52.276;10.530;2022-09-27T13:58:32;649.30;;;554.97;;
11955;SDS011;6038;52.276;10.530;2022-09-27T14:01:00;640.77;;;554.97;;
11955;SDS011;6038;52.276;10.530;2022-09-27T14:06:18;1040.72;;;958.92;;
11955;SDS011;6038;52.276;10.530;2022-09-27T14:08:47;760.67;;;688.47;;
11955;SDS011;6038;52.276;10.530;2022-09-27T14:11:32;708.03;;;635.93;;
11955;SDS011;6038;52.276;10.530;2022-09-27T14:13:59;697.13;;;624.83;;
11955;SDS011;6038;52.276;10.530;2022-09-27T14:16:29;725.73;;;649.67;;
11955;SDS011;6038;52.276;10.530;2022-09-27T14:18:57;760.37;;;681.97;;
11955;SDS011;6038;52.276;10.530;2022-09-27T14:23:50;858.63;;;776.67;;
11955;SDS011;6038;52.276;10.530;2022-09-27T14:26:25;863.27;;;781.47;;
11955;SDS011;6038;52.276;10.530;2022-09-27T14:28:51;863.60;;;782.00;;
11955;SDS011;6038;52.276;10.530;2022-09-27T14:33:44;844.73;;;766.57;;
11955;SDS011;6038;52.276;10.530;2022-09-27T14:36:32;831.80;;;752.77;;
11955;SDS011;6038;52.276;10.530;2022-09-27T14:39:15;787.53;;;710.10;;
11955;SDS011;6038;52.276;10.530;2022-09-27T14:41:45;765.53;;;687.67;;
11955;SDS011;6038;52.276;10.530;2022-09-27T14:44:15;748.33;;;673.93;;
11955;SDS011;6038;52.276;10.530;2022-09-27T14:46:42;735.87;;;661.70;;
11955;SDS011;6038;52.276;10.530;2022-09-27T14:49:26;734.73;;;660.40;;
11955;SDS011;6038;52.276;10.530;2022-09-27T14:51:53;728.10;;;655.00;;
11955;SDS011;6038;52.276;10.530;2022-09-27T14:54:21;738.23;;;667.07;;
11955;SDS011;6038;52.276;10.530;2022-09-27T14:56:49;738.67;;;664.33;;
11955;SDS011;6038;52.276;10.530;2022-09-27T14:59:16;734.73;;;661.33;;
11955;SDS011;6038;52.276;10.530;2022-09-27T15:01:48;721.30;;;648.67;;
11955;SDS011;6038;52.276;10.530;2022-09-27T15:04:15;724.43;;;651.53;;
11955;SDS011;6038;52.276;10.530;2022-09-27T15:06:41;707.40;;;635.10;;
11955;SDS011;6038;52.276;10.530;2022-09-27T15:09:09;705.27;;;629.10;;
11955;SDS011;6038;52.276;10.530;2022-09-27T15:11:38;695.93;;;619.93;;
11955;SDS011;6038;52.276;10.530;2022-09-27T15:14:05;678.00;;;600.47;;
11955;SDS011;6038;52.276;10.530;2022-09-27T15:16:31;675.00;;;592.83;;
11955;SDS011;6038;52.276;10.530;2022-09-27T15:19:02;665.00;;;577.70;;
11955;SDS011;6038;52.276;10.530;2022-09-27T15:21:35;661.93;;;567.73;;
11955;SDS011;6038;52.276;10.530;2022-09-27T15:24:02;649.07;;;575.57;;
11955;SDS011;6038;52.276;10.530;2022-09-27T15:28:59;644.60;;;541.53;;
11955;SDS011;6038;52.276;10.530;2022-09-27T15:31:29;648.37;;;540.23;;
11955;SDS011;6038;52.276;10.530;2022-09-27T15:33:56;625.90;;;546.37;;
11955;SDS011;6038;52.276;10.530;2022-09-27T15:37:09;637.07;;;528.70;;
11955;SDS011;6038;52.276;10.530;2022-09-27T15:39:10;634.97;;;513.70;;
11955;SDS011;6038;52.276;10.530;2022-09-27T15:44:45;621.80;;;531.23;;
11955;SDS011;6038;52.276;10.530;2022-09-27T15:49:59;628.70;;;504.13;;
11955;SDS011;6038;52.276;10.530;2022-09-27T15:55:17;617.50;;;504.47;;
11955;SDS011;6038;52.276;10.530;2022-09-27T15:57:46;626.43;;;512.30;;
11955;SDS011;6038;52.276;10.530;2022-09-27T16:00:14;624.80;;;492.80;;
11955;SDS011;6038;52.276;10.530;2022-09-27T16:02:48;630.80;;;493.93;;
11955;SDS011;6038;52.276;10.530;2022-09-27T16:05:14;625.00;;;493.20;;
11955;SDS011;6038;52.276;10.530;2022-09-27T16:07:40;624.97;;;490.73;;
11955;SDS011;6038;52.276;10.530;2022-09-27T16:10:19;625.10;;;494.70;;
11955;SDS011;6038;52.276;10.530;2022-09-27T16:12:46;628.43;;;492.87;;
11955;SDS011;6038;52.276;10.530;2022-09-27T16:15:12;624.23;;;524.30;;
11955;SDS011;6038;52.276;10.530;2022-09-27T16:17:38;642.93;;;481.80;;
11955;SDS011;6038;52.276;10.530;2022-09-27T16:20:08;630.63;;;477.57;;
11955;SDS011;6038;52.276;10.530;2022-09-27T16:22:36;639.30;;;475.83;;
11955;SDS011;6038;52.276;10.530;2022-09-27T16:25:02;636.97;;;472.67;;
11955;SDS011;6038;52.276;10.530;2022-09-27T16:27:28;637.10;;;474.37;;
11955;SDS011;6038;52.276;10.530;2022-09-27T16:29:54;635.93;;;460.10;;
11955;SDS011;6038;52.276;10.530;2022-09-27T16:32:22;625.67;;;458.07;;
11955;SDS011;6038;52.276;10.530;2022-09-27T16:34:48;629.90;;;479.07;;
11955;SDS011;6038;52.276;10.530;2022-09-27T16:37:14;630.97;;;451.17;;
11955;SDS011;6038;52.276;10.530;2022-09-27T16:39:40;632.43;;;451.07;;
11955;SDS011;6038;52.276;10.530;2022-09-27T16:42:06;639.77;;;470.40;;
11955;SDS011;6038;52.276;10.530;2022-09-27T16:44:33;643.87;;;464.83;;
11955;SDS011;6038;52.276;10.530;2022-09-27T16:47:00;637.33;;;439.20;;
11955;SDS011;6038;52.276;10.530;2022-09-27T16:49:26;638.37;;;432.37;;
11955;SDS011;6038;52.276;10.530;2022-09-27T16:52:11;635.10;;;430.10;;
11955;SDS011;6038;52.276;10.530;2022-09-27T16:54:37;635.63;;;431.10;;
11955;SDS011;6038;52.276;10.530;2022-09-27T16:57:03;635.27;;;422.47;;
11955;SDS011;6038;52.276;10.530;2022-09-27T16:59:29;634.13;;;425.00;;
11955;SDS011;6038;52.276;10.530;2022-09-27T17:01:56;633.97;;;425.13;;
11955;SDS011;6038;52.276;10.530;2022-09-27T17:04:25;632.40;;;421.57;;
11955;SDS011;6038;52.276;10.530;2022-09-27T17:06:52;633.37;;;421.60;;
11955;SDS011;6038;52.276;10.530;2022-09-27T17:09:19;633.33;;;423.43;;
11955;SDS011;6038;52.276;10.530;2022-09-27T17:11:45;630.90;;;420.33;;
11955;SDS011;6038;52.276;10.530;2022-09-27T17:14:12;634.23;;;422.07;;
11955;SDS011;6038;52.276;10.530;2022-09-27T17:16:41;639.33;;;446.63;;
11955;SDS011;6038;52.276;10.530;2022-09-27T17:19:08;631.63;;;417.17;;
11955;SDS011;6038;52.276;10.530;2022-09-27T17:21:37;631.90;;;417.10;;